Dixonville, Canada
Current Conditions -  °F | °C
As of 12:00 PM on Wednesday 17 Dec 2014 (Local Time) from CYPE Reporting Station
Haze Haze  
Wind Chill: -7°   Ceiling: 21000
Heat Index:   Visibility: 5mi
Dew Point:   Wind: 7mph
Humidity: 85%   Direction: 230°SW
Pressure: 29.79"   Gusts: NA
Location:  56.53°N, 117.67°W
Report Text: CYPE 171900Z 23006KT 5SM BR FEW080 SCT120 BKN210 M15/M17 A2979 RMK AC1AC3CI3 SLP141
Loading
Personal Weather Stations






























Interactive Weather Map New forecast layout! Learn more

10-Day Weather Forecast

Advertisements
Track Severe Weather on mobile